sensor_id;sensor_type;location;lat;lon;timestamp;temperature;humidity
34574;DHT22;20809;49.594;8.734;2022-09-29T00:02:53;6.60;99.90
34574;DHT22;20809;49.594;8.734;2022-09-29T00:05:54;6.50;99.90
34574;DHT22;20809;49.594;8.734;2022-09-29T00:08:57;6.60;99.90
34574;DHT22;20809;49.594;8.734;2022-09-29T00:11:57;6.60;99.90
34574;DHT22;20809;49.594;8.734;2022-09-29T00:14:58;6.60;99.90
34574;DHT22;20809;49.594;8.734;2022-09-29T00:17:59;6.60;99.90
34574;DHT22;20809;49.594;8.734;2022-09-29T00:21:02;6.50;99.90
34574;DHT22;20809;49.594;8.734;2022-09-29T00:24:03;6.50;99.90
34574;DHT22;20809;49.594;8.734;2022-09-29T00:27:04;6.50;99.90
34574;DHT22;20809;49.594;8.734;2022-09-29T00:30:05;6.50;99.90
34574;DHT22;20809;49.594;8.734;2022-09-29T00:33:05;6.40;99.90
34574;DHT22;20809;49.594;8.734;2022-09-29T00:36:10;6.40;99.90
34574;DHT22;20809;49.594;8.734;2022-09-29T00:39:12;6.30;99.90
34574;DHT22;20809;49.594;8.734;2022-09-29T00:42:17;6.30;99.90
34574;DHT22;20809;49.594;8.734;2022-09-29T00:45:21;6.20;99.90
34574;DHT22;20809;49.594;8.734;2022-09-29T00:48:28;6.20;99.90
34574;DHT22;20809;49.594;8.734;2022-09-29T00:51:32;6.30;99.90
34574;DHT22;20809;49.594;8.734;2022-09-29T00:54:45;6.40;99.90
34574;DHT22;20809;49.594;8.734;2022-09-29T00:59:11;6.30;99.90
34574;DHT22;20809;49.594;8.734;2022-09-29T01:02:13;6.20;99.90
34574;DHT22;20809;49.594;8.734;2022-09-29T01:05:22;6.20;99.90
34574;DHT22;20809;49.594;8.734;2022-09-29T01:11:43;6.10;99.90
34574;DHT22;20809;49.594;8.734;2022-09-29T01:14:46;6.10;99.90
34574;DHT22;20809;49.594;8.734;2022-09-29T01:17:48;6.10;99.90
34574;DHT22;20809;49.594;8.734;2022-09-29T01:21:08;6.00;99.90
34574;DHT22;20809;49.594;8.734;2022-09-29T01:31:43;5.70;99.90
34574;DHT22;20809;49.594;8.734;2022-09-29T01:41:41;5.60;99.90
34574;DHT22;20809;49.594;8.734;2022-09-29T01:44:55;5.60;99.90
34574;DHT22;20809;49.594;8.734;2022-09-29T01:48:01;5.50;99.90
34574;DHT22;20809;49.594;8.734;2022-09-29T01:51:10;5.50;99.90
34574;DHT22;20809;49.594;8.734;2022-09-29T01:54:24;5.50;99.90
34574;DHT22;20809;49.594;8.734;2022-09-29T01:57:41;5.40;99.90
34574;DHT22;20809;49.594;8.734;2022-09-29T02:00:52;5.30;99.90
34574;DHT22;20809;49.594;8.734;2022-09-29T02:04:08;5.20;99.90
34574;DHT22;20809;49.594;8.734;2022-09-29T02:07:26;5.20;99.90
34574;DHT22;20809;49.594;8.734;2022-09-29T02:10:33;5.10;99.90
34574;DHT22;20809;49.594;8.734;2022-09-29T02:13:40;5.10;99.90
34574;DHT22;20809;49.594;8.734;2022-09-29T02:16:53;5.10;99.90
34574;DHT22;20809;49.594;8.734;2022-09-29T02:19:55;5.10;99.90
34574;DHT22;20809;49.594;8.734;2022-09-29T02:22:56;5.00;99.90
34574;DHT22;20809;49.594;8.734;2022-09-29T02:25:57;5.00;99.90
34574;DHT22;20809;49.594;8.734;2022-09-29T02:28:59;5.00;99.90
34574;DHT22;20809;49.594;8.734;2022-09-29T02:32:02;5.10;99.90
34574;DHT22;20809;49.594;8.734;2022-09-29T02:35:06;5.10;99.90
34574;DHT22;20809;49.594;8.734;2022-09-29T02:38:42;5.10;99.90
34574;DHT22;20809;49.594;8.734;2022-09-29T02:41:55;5.10;99.90
34574;DHT22;20809;49.594;8.734;2022-09-29T02:48:40;5.10;99.90
34574;DHT22;20809;49.594;8.734;2022-09-29T02:51:47;5.00;99.90
34574;DHT22;20809;49.594;8.734;2022-09-29T02:55:06;5.00;99.90
34574;DHT22;20809;49.594;8.734;2022-09-29T02:58:19;5.10;99.90
34574;DHT22;20809;49.594;8.734;2022-09-29T03:01:24;5.10;99.90
34574;DHT22;20809;49.594;8.734;2022-09-29T03:04:26;5.00;99.90
34574;DHT22;20809;49.594;8.734;2022-09-29T03:07:27;5.10;99.90
34574;DHT22;20809;49.594;8.734;2022-09-29T03:10:27;5.00;99.90
34574;DHT22;20809;49.594;8.734;2022-09-29T03:13:28;5.00;99.90
34574;DHT22;20809;49.594;8.734;2022-09-29T03:16:29;5.00;99.90
34574;DHT22;20809;49.594;8.734;2022-09-29T03:19:29;5.00;99.90
34574;DHT22;20809;49.594;8.734;2022-09-29T03:22:30;5.00;99.90
34574;DHT22;20809;49.594;8.734;2022-09-29T03:25:31;4.90;99.90
34574;DHT22;20809;49.594;8.734;2022-09-29T03:28:32;5.00;99.90
34574;DHT22;20809;49.594;8.734;2022-09-29T03:31:32;5.00;99.90
34574;DHT22;20809;49.594;8.734;2022-09-29T03:34:33;4.90;99.90
34574;DHT22;20809;49.594;8.734;2022-09-29T03:37:34;4.90;99.90
34574;DHT22;20809;49.594;8.734;2022-09-29T03:40:34;4.90;99.90
34574;DHT22;20809;49.594;8.734;2022-09-29T03:43:35;5.00;99.90
34574;DHT22;20809;49.594;8.734;2022-09-29T03:46:36;5.00;99.90
34574;DHT22;20809;49.594;8.734;2022-09-29T03:49:36;4.90;99.90
34574;DHT22;20809;49.594;8.734;2022-09-29T03:52:37;4.90;99.90
34574;DHT22;20809;49.594;8.734;2022-09-29T03:55:38;4.80;99.90
34574;DHT22;20809;49.594;8.734;2022-09-29T03:58:39;4.70;99.90
34574;DHT22;20809;49.594;8.734;2022-09-29T04:01:39;4.70;99.90
34574;DHT22;20809;49.594;8.734;2022-09-29T04:04:40;4.80;99.90
34574;DHT22;20809;49.594;8.734;2022-09-29T04:07:41;4.90;99.90
34574;DHT22;20809;49.594;8.734;2022-09-29T04:10:42;4.80;99.90
34574;DHT22;20809;49.594;8.734;2022-09-29T04:13:42;4.80;99.90
34574;DHT22;20809;49.594;8.734;2022-09-29T04:16:43;4.80;99.90
34574;DHT22;20809;49.594;8.734;2022-09-29T04:19:44;4.70;99.90
34574;DHT22;20809;49.594;8.734;2022-09-29T04:22:44;4.80;99.90
34574;DHT22;20809;49.594;8.734;2022-09-29T04:25:45;4.80;99.90
34574;DHT22;20809;49.594;8.734;2022-09-29T04:28:46;4.90;99.90
34574;DHT22;20809;49.594;8.734;2022-09-29T04:31:47;4.90;99.90
34574;DHT22;20809;49.594;8.734;2022-09-29T04:34:47;4.90;99.90
34574;DHT22;20809;49.594;8.734;2022-09-29T04:37:48;4.90;99.90
34574;DHT22;20809;49.594;8.734;2022-09-29T04:40:49;4.80;99.90
34574;DHT22;20809;49.594;8.734;2022-09-29T04:43:49;4.70;99.90
34574;DHT22;20809;49.594;8.734;2022-09-29T04:46:50;4.70;99.90
34574;DHT22;20809;49.594;8.734;2022-09-29T04:49:51;4.60;99.90
34574;DHT22;20809;49.594;8.734;2022-09-29T04:52:51;4.70;99.90
34574;DHT22;20809;49.594;8.734;2022-09-29T04:55:53;4.70;99.90
34574;DHT22;20809;49.594;8.734;2022-09-29T04:58:53;4.60;99.90
34574;DHT22;20809;49.594;8.734;2022-09-29T05:01:54;4.60;99.90
34574;DHT22;20809;49.594;8.734;2022-09-29T05:04:55;4.60;99.90
34574;DHT22;20809;49.594;8.734;2022-09-29T05:07:56;4.50;99.90
34574;DHT22;20809;49.594;8.734;2022-09-29T05:11:02;4.60;99.90
34574;DHT22;20809;49.594;8.734;2022-09-29T05:14:03;4.60;99.90
34574;DHT22;20809;49.594;8.734;2022-09-29T05:17:04;4.60;99.90
34574;DHT22;20809;49.594;8.734;2022-09-29T05:20:05;4.60;99.90
34574;DHT22;20809;49.594;8.734;2022-09-29T05:23:06;4.60;99.90
34574;DHT22;20809;49.594;8.734;2022-09-29T05:26:10;4.60;99.90
34574;DHT22;20809;49.594;8.734;2022-09-29T05:29:11;4.70;99.90
34574;DHT22;20809;49.594;8.734;2022-09-29T05:32:12;4.70;99.90
34574;DHT22;20809;49.594;8.734;2022-09-29T05:35:12;4.70;99.90
34574;DHT22;20809;49.594;8.734;2022-09-29T05:38:13;4.80;99.90
34574;DHT22;20809;49.594;8.734;2022-09-29T05:41:14;5.00;99.90
34574;DHT22;20809;49.594;8.734;2022-09-29T05:44:21;5.10;99.90
34574;DHT22;20809;49.594;8.734;2022-09-29T05:47:22;5.20;99.90
34574;DHT22;20809;49.594;8.734;2022-09-29T05:50:23;5.30;99.90
34574;DHT22;20809;49.594;8.734;2022-09-29T05:53:24;5.40;99.90
34574;DHT22;20809;49.594;8.734;2022-09-29T05:56:26;5.40;99.90
34574;DHT22;20809;49.594;8.734;2022-09-29T05:59:26;5.40;99.90
34574;DHT22;20809;49.594;8.734;2022-09-29T06:02:27;5.40;99.90
34574;DHT22;20809;49.594;8.734;2022-09-29T06:05:28;5.40;99.90
34574;DHT22;20809;49.594;8.734;2022-09-29T06:08:28;5.50;99.90
34574;DHT22;20809;49.594;8.734;2022-09-29T06:11:30;5.50;99.90
34574;DHT22;20809;49.594;8.734;2022-09-29T06:14:33;5.60;99.90
34574;DHT22;20809;49.594;8.734;2022-09-29T06:17:34;5.60;99.90
34574;DHT22;20809;49.594;8.734;2022-09-29T06:20:34;5.60;99.90
34574;DHT22;20809;49.594;8.734;2022-09-29T06:23:38;5.50;99.90
34574;DHT22;20809;49.594;8.734;2022-09-29T06:26:38;5.50;99.90
34574;DHT22;20809;49.594;8.734;2022-09-29T06:29:39;5.60;99.90
34574;DHT22;20809;49.594;8.734;2022-09-29T06:32:40;5.70;99.90
34574;DHT22;20809;49.594;8.734;2022-09-29T06:35:47;5.80;99.90
34574;DHT22;20809;49.594;8.734;2022-09-29T06:39:10;5.90;99.90
34574;DHT22;20809;49.594;8.734;2022-09-29T06:42:11;6.00;99.90
34574;DHT22;20809;49.594;8.734;2022-09-29T06:45:11;6.20;99.90
34574;DHT22;20809;49.594;8.734;2022-09-29T06:48:12;6.40;99.90
34574;DHT22;20809;49.594;8.734;2022-09-29T06:51:13;6.50;99.90
34574;DHT22;20809;49.594;8.734;2022-09-29T06:54:16;6.60;99.90
34574;DHT22;20809;49.594;8.734;2022-09-29T06:57:17;6.70;99.90
34574;DHT22;20809;49.594;8.734;2022-09-29T07:00:18;6.90;99.90
34574;DHT22;20809;49.594;8.734;2022-09-29T07:03:19;7.20;99.90
34574;DHT22;20809;49.594;8.734;2022-09-29T07:06:20;7.30;99.90
34574;DHT22;20809;49.594;8.734;2022-09-29T07:09:20;7.40;99.90
34574;DHT22;20809;49.594;8.734;2022-09-29T07:12:22;7.40;99.90
34574;DHT22;20809;49.594;8.734;2022-09-29T07:15:24;7.50;99.90
34574;DHT22;20809;49.594;8.734;2022-09-29T07:18:30;7.60;99.90
34574;DHT22;20809;49.594;8.734;2022-09-29T07:21:31;7.90;99.90
34574;DHT22;20809;49.594;8.734;2022-09-29T07:24:32;8.20;99.90
34574;DHT22;20809;49.594;8.734;2022-09-29T07:27:32;8.30;99.90
34574;DHT22;20809;49.594;8.734;2022-09-29T07:30:34;8.40;99.90
34574;DHT22;20809;49.594;8.734;2022-09-29T07:33:36;8.40;99.90
34574;DHT22;20809;49.594;8.734;2022-09-29T07:36:37;8.30;99.90
34574;DHT22;20809;49.594;8.734;2022-09-29T07:39:38;8.20;99.90
34574;DHT22;20809;49.594;8.734;2022-09-29T07:42:39;8.30;99.90
34574;DHT22;20809;49.594;8.734;2022-09-29T07:45:48;8.70;99.90
34574;DHT22;20809;49.594;8.734;2022-09-29T07:48:49;8.90;99.90
34574;DHT22;20809;49.594;8.734;2022-09-29T07:51:50;9.00;99.90
34574;DHT22;20809;49.594;8.734;2022-09-29T07:54:51;9.50;99.90
34574;DHT22;20809;49.594;8.734;2022-09-29T07:57:52;9.90;99.90
34574;DHT22;20809;49.594;8.734;2022-09-29T08:00:54;10.20;99.90
34574;DHT22;20809;49.594;8.734;2022-09-29T08:03:55;10.20;99.90
34574;DHT22;20809;49.594;8.734;2022-09-29T08:06:55;10.50;99.90
34574;DHT22;20809;49.594;8.734;2022-09-29T08:09:56;10.80;99.90
34574;DHT22;20809;49.594;8.734;2022-09-29T08:12:58;11.00;99.90
34574;DHT22;20809;49.594;8.734;2022-09-29T08:15:59;11.40;99.90
34574;DHT22;20809;49.594;8.734;2022-09-29T08:19:00;11.50;99.90
34574;DHT22;20809;49.594;8.734;2022-09-29T08:22:01;11.70;99.90
34574;DHT22;20809;49.594;8.734;2022-09-29T08:25:02;12.10;99.90
34574;DHT22;20809;49.594;8.734;2022-09-29T08:28:03;12.30;99.90
34574;DHT22;20809;49.594;8.734;2022-09-29T08:31:06;12.70;99.90
34574;DHT22;20809;49.594;8.734;2022-09-29T08:34:08;13.10;99.90
34574;DHT22;20809;49.594;8.734;2022-09-29T08:37:08;13.40;99.90
34574;DHT22;20809;49.594;8.734;2022-09-29T08:40:09;13.70;99.90
34574;DHT22;20809;49.594;8.734;2022-09-29T08:43:14;13.90;99.90
34574;DHT22;20809;49.594;8.734;2022-09-29T08:49:46;14.60;99.90
34574;DHT22;20809;49.594;8.734;2022-09-29T08:53:12;14.80;99.90
34574;DHT22;20809;49.594;8.734;2022-09-29T08:56:16;15.20;99.90
34574;DHT22;20809;49.594;8.734;2022-09-29T08:59:17;15.50;99.90
34574;DHT22;20809;49.594;8.734;2022-09-29T09:09:22;15.70;99.90
34574;DHT22;20809;49.594;8.734;2022-09-29T09:16:22;16.10;99.90
34574;DHT22;20809;49.594;8.734;2022-09-29T09:26:00;17.10;99.90
34574;DHT22;20809;49.594;8.734;2022-09-29T09:29:06;17.30;99.90
34574;DHT22;20809;49.594;8.734;2022-09-29T09:32:16;17.40;99.90
34574;DHT22;20809;49.594;8.734;2022-09-29T09:35:37;17.20;99.90
34574;DHT22;20809;49.594;8.734;2022-09-29T09:38:52;17.20;99.90
34574;DHT22;20809;49.594;8.734;2022-09-29T09:41:56;17.20;99.90
34574;DHT22;20809;49.594;8.734;2022-09-29T09:45:04;17.10;99.90
34574;DHT22;20809;49.594;8.734;2022-09-29T09:48:06;17.10;99.90
34574;DHT22;20809;49.594;8.734;2022-09-29T09:54:50;17.30;99.90
34574;DHT22;20809;49.594;8.734;2022-09-29T10:01:08;16.80;99.90
34574;DHT22;20809;49.594;8.734;2022-09-29T10:04:12;16.70;99.90
34574;DHT22;20809;49.594;8.734;2022-09-29T10:07:13;16.80;99.90
34574;DHT22;20809;49.594;8.734;2022-09-29T10:10:19;16.90;99.90
34574;DHT22;20809;49.594;8.734;2022-09-29T10:13:24;17.40;99.90
34574;DHT22;20809;49.594;8.734;2022-09-29T10:16:35;18.00;99.90
34574;DHT22;20809;49.594;8.734;2022-09-29T10:19:59;18.10;99.90
34574;DHT22;20809;49.594;8.734;2022-09-29T10:23:19;18.40;99.90
34574;DHT22;20809;49.594;8.734;2022-09-29T10:26:25;18.60;99.90
34574;DHT22;20809;49.594;8.734;2022-09-29T10:29:39;18.60;99.90
34574;DHT22;20809;49.594;8.734;2022-09-29T10:32:43;18.60;99.90
34574;DHT22;20809;49.594;8.734;2022-09-29T10:35:45;18.60;99.90
34574;DHT22;20809;49.594;8.734;2022-09-29T10:38:49;18.60;99.90
34574;DHT22;20809;49.594;8.734;2022-09-29T10:41:51;18.70;99.90
34574;DHT22;20809;49.594;8.734;2022-09-29T10:51:04;18.80;99.90
34574;DHT22;20809;49.594;8.734;2022-09-29T10:54:13;18.80;99.90
34574;DHT22;20809;49.594;8.734;2022-09-29T10:57:22;19.00;99.90
34574;DHT22;20809;49.594;8.734;2022-09-29T11:03:29;18.80;99.90
34574;DHT22;20809;49.594;8.734;2022-09-29T11:06:32;18.80;99.90
34574;DHT22;20809;49.594;8.734;2022-09-29T11:09:41;18.70;99.90
34574;DHT22;20809;49.594;8.734;2022-09-29T11:12:42;18.50;99.90
34574;DHT22;20809;49.594;8.734;2022-09-29T11:15:45;18.10;99.90
34574;DHT22;20809;49.594;8.734;2022-09-29T11:18:48;18.00;99.90
34574;DHT22;20809;49.594;8.734;2022-09-29T11:25:25;18.10;99.90
34574;DHT22;20809;49.594;8.734;2022-09-29T11:31:47;18.20;99.90
34574;DHT22;20809;49.594;8.734;2022-09-29T11:44:34;17.80;99.90
34574;DHT22;20809;49.594;8.734;2022-09-29T11:51:08;17.20;99.90
34574;DHT22;20809;49.594;8.734;2022-09-29T12:11:04;18.50;99.90
34574;DHT22;20809;49.594;8.734;2022-09-29T12:17:30;18.50;99.90
34574;DHT22;20809;49.594;8.734;2022-09-29T12:20:38;18.60;99.90
34574;DHT22;20809;49.594;8.734;2022-09-29T12:23:42;19.00;99.90
34574;DHT22;20809;49.594;8.734;2022-09-29T12:26:48;19.20;99.90
34574;DHT22;20809;49.594;8.734;2022-09-29T12:33:14;19.40;99.90
34574;DHT22;20809;49.594;8.734;2022-09-29T12:36:44;19.20;99.90
34574;DHT22;20809;49.594;8.734;2022-09-29T12:40:19;19.30;99.90
34574;DHT22;20809;49.594;8.734;2022-09-29T12:43:28;19.40;99.90
34574;DHT22;20809;49.594;8.734;2022-09-29T12:46:37;19.40;99.90
34574;DHT22;20809;49.594;8.734;2022-09-29T12:56:42;19.20;99.90
34574;DHT22;20809;49.594;8.734;2022-09-29T13:20:47;18.40;99.90
34574;DHT22;20809;49.594;8.734;2022-09-29T13:23:54;18.60;99.90
34574;DHT22;20809;49.594;8.734;2022-09-29T13:33:20;18.40;99.90
34574;DHT22;20809;49.594;8.734;2022-09-29T13:36:27;18.30;99.90
34574;DHT22;20809;49.594;8.734;2022-09-29T13:39:29;18.20;99.90
34574;DHT22;20809;49.594;8.734;2022-09-29T13:45:38;17.80;99.90
34574;DHT22;20809;49.594;8.734;2022-09-29T13:48:51;17.10;99.90
34574;DHT22;20809;49.594;8.734;2022-09-29T13:54:53;16.20;99.90
34574;DHT22;20809;49.594;8.734;2022-09-29T13:57:54;16.00;99.90
34574;DHT22;20809;49.594;8.734;2022-09-29T14:00:58;15.60;99.90
34574;DHT22;20809;49.594;8.734;2022-09-29T14:07:46;14.80;99.90
34574;DHT22;20809;49.594;8.734;2022-09-29T14:11:06;14.70;99.90
34574;DHT22;20809;49.594;8.734;2022-09-29T14:14:15;14.70;99.90
34574;DHT22;20809;49.594;8.734;2022-09-29T14:17:27;14.50;99.90
34574;DHT22;20809;49.594;8.734;2022-09-29T14:20:31;14.30;99.90
34574;DHT22;20809;49.594;8.734;2022-09-29T14:23:46;14.40;99.90
34574;DHT22;20809;49.594;8.734;2022-09-29T14:26:50;14.60;99.90
34574;DHT22;20809;49.594;8.734;2022-09-29T14:36:21;15.10;99.90
34574;DHT22;20809;49.594;8.734;2022-09-29T14:39:24;15.30;99.90
34574;DHT22;20809;49.594;8.734;2022-09-29T14:42:25;15.30;99.90
34574;DHT22;20809;49.594;8.734;2022-09-29T14:45:26;15.40;99.90
34574;DHT22;20809;49.594;8.734;2022-09-29T15:02:28;14.90;99.90
34574;DHT22;20809;49.594;8.734;2022-09-29T15:05:32;14.70;99.90
34574;DHT22;20809;49.594;8.734;2022-09-29T15:08:33;14.60;99.90
34574;DHT22;20809;49.594;8.734;2022-09-29T15:11:42;14.50;99.90
34574;DHT22;20809;49.594;8.734;2022-09-29T15:14:44;14.50;99.90
34574;DHT22;20809;49.594;8.734;2022-09-29T15:17:59;14.50;99.90
34574;DHT22;20809;49.594;8.734;2022-09-29T15:21:20;14.50;99.90
34574;DHT22;20809;49.594;8.734;2022-09-29T15:27:32;14.40;99.90
34574;DHT22;20809;49.594;8.734;2022-09-29T15:30:33;14.40;99.90
34574;DHT22;20809;49.594;8.734;2022-09-29T15:33:36;14.30;99.90
34574;DHT22;20809;49.594;8.734;2022-09-29T15:36:39;14.30;99.90
34574;DHT22;20809;49.594;8.734;2022-09-29T15:39:43;14.40;99.90
34574;DHT22;20809;49.594;8.734;2022-09-29T15:42:47;14.30;99.90
34574;DHT22;20809;49.594;8.734;2022-09-29T15:45:55;14.20;99.90
34574;DHT22;20809;49.594;8.734;2022-09-29T15:49:28;14.10;99.90
34574;DHT22;20809;49.594;8.734;2022-09-29T15:52:30;14.00;99.90
34574;DHT22;20809;49.594;8.734;2022-09-29T15:55:31;13.90;99.90
34574;DHT22;20809;49.594;8.734;2022-09-29T15:58:33;13.70;99.90
34574;DHT22;20809;49.594;8.734;2022-09-29T16:01:36;13.70;99.90
34574;DHT22;20809;49.594;8.734;2022-09-29T16:04:37;13.60;99.90
34574;DHT22;20809;49.594;8.734;2022-09-29T16:07:40;13.50;99.90
34574;DHT22;20809;49.594;8.734;2022-09-29T16:10:53;13.40;99.90
34574;DHT22;20809;49.594;8.734;2022-09-29T16:14:10;13.40;99.90
34574;DHT22;20809;49.594;8.734;2022-09-29T16:17:15;13.40;99.90
34574;DHT22;20809;49.594;8.734;2022-09-29T16:20:31;13.40;99.90
34574;DHT22;20809;49.594;8.734;2022-09-29T16:23:59;13.30;99.90
34574;DHT22;20809;49.594;8.734;2022-09-29T16:27:02;13.30;99.90
34574;DHT22;20809;49.594;8.734;2022-09-29T16:30:21;13.30;99.90
34574;DHT22;20809;49.594;8.734;2022-09-29T16:33:22;13.30;99.90
34574;DHT22;20809;49.594;8.734;2022-09-29T16:36:25;13.30;99.90
34574;DHT22;20809;49.594;8.734;2022-09-29T16:39:38;13.20;99.90
34574;DHT22;20809;49.594;8.734;2022-09-29T16:42:51;13.10;99.90
34574;DHT22;20809;49.594;8.734;2022-09-29T16:45:54;13.10;99.90
34574;DHT22;20809;49.594;8.734;2022-09-29T16:48:56;13.00;99.90
34574;DHT22;20809;49.594;8.734;2022-09-29T16:52:20;12.90;99.90
34574;DHT22;20809;49.594;8.734;2022-09-29T16:58:30;12.70;99.90
34574;DHT22;20809;49.594;8.734;2022-09-29T17:01:31;12.50;99.90
34574;DHT22;20809;49.594;8.734;2022-09-29T17:04:32;12.40;99.90
34574;DHT22;20809;49.594;8.734;2022-09-29T17:07:38;12.30;99.90
34574;DHT22;20809;49.594;8.734;2022-09-29T17:10:39;12.20;99.90
34574;DHT22;20809;49.594;8.734;2022-09-29T17:13:40;12.20;99.90
34574;DHT22;20809;49.594;8.734;2022-09-29T17:16:41;12.10;99.90
34574;DHT22;20809;49.594;8.734;2022-09-29T17:19:43;12.00;99.90
34574;DHT22;20809;49.594;8.734;2022-09-29T17:22:44;12.00;99.90
34574;DHT22;20809;49.594;8.734;2022-09-29T17:25:45;11.90;99.90
34574;DHT22;20809;49.594;8.734;2022-09-29T17:28:47;11.90;99.90
34574;DHT22;20809;49.594;8.734;2022-09-29T17:31:47;11.90;99.90
34574;DHT22;20809;49.594;8.734;2022-09-29T17:34:48;11.80;99.90
34574;DHT22;20809;49.594;8.734;2022-09-29T17:37:49;11.70;99.90
34574;DHT22;20809;49.594;8.734;2022-09-29T17:40:58;11.70;99.90
34574;DHT22;20809;49.594;8.734;2022-09-29T17:44:01;11.60;99.90
34574;DHT22;20809;49.594;8.734;2022-09-29T17:47:15;11.50;99.90
34574;DHT22;20809;49.594;8.734;2022-09-29T17:50:34;11.50;99.90
34574;DHT22;20809;49.594;8.734;2022-09-29T17:53:40;11.40;99.90
34574;DHT22;20809;49.594;8.734;2022-09-29T17:56:41;11.40;99.90
34574;DHT22;20809;49.594;8.734;2022-09-29T17:59:43;11.30;99.90
34574;DHT22;20809;49.594;8.734;2022-09-29T18:02:44;11.10;99.90
34574;DHT22;20809;49.594;8.734;2022-09-29T18:05:47;11.10;99.90
34574;DHT22;20809;49.594;8.734;2022-09-29T18:08:48;11.00;99.90
34574;DHT22;20809;49.594;8.734;2022-09-29T18:11:51;10.90;99.90
34574;DHT22;20809;49.594;8.734;2022-09-29T18:14:52;10.80;99.90
34574;DHT22;20809;49.594;8.734;2022-09-29T18:17:57;10.80;99.90
34574;DHT22;20809;49.594;8.734;2022-09-29T18:20:58;10.80;99.90
34574;DHT22;20809;49.594;8.734;2022-09-29T18:24:00;10.70;99.90
34574;DHT22;20809;49.594;8.734;2022-09-29T18:27:02;10.60;99.90
34574;DHT22;20809;49.594;8.734;2022-09-29T18:30:06;10.60;99.90
34574;DHT22;20809;49.594;8.734;2022-09-29T18:33:17;10.40;99.90
34574;DHT22;20809;49.594;8.734;2022-09-29T18:36:19;10.40;99.90
34574;DHT22;20809;49.594;8.734;2022-09-29T18:39:20;10.30;99.90
34574;DHT22;20809;49.594;8.734;2022-09-29T18:42:20;10.30;99.90
34574;DHT22;20809;49.594;8.734;2022-09-29T18:45:23;10.20;99.90
34574;DHT22;20809;49.594;8.734;2022-09-29T18:48:24;10.20;99.90
34574;DHT22;20809;49.594;8.734;2022-09-29T18:51:25;10.30;99.90
34574;DHT22;20809;49.594;8.734;2022-09-29T18:54:26;10.20;99.90
34574;DHT22;20809;49.594;8.734;2022-09-29T18:57:26;10.00;99.90
34574;DHT22;20809;49.594;8.734;2022-09-29T19:00:33;10.00;99.90
34574;DHT22;20809;49.594;8.734;2022-09-29T19:03:38;9.90;99.90
34574;DHT22;20809;49.594;8.734;2022-09-29T19:06:39;9.80;99.90
34574;DHT22;20809;49.594;8.734;2022-09-29T19:09:40;9.70;99.90
34574;DHT22;20809;49.594;8.734;2022-09-29T19:12:42;9.70;99.90
34574;DHT22;20809;49.594;8.734;2022-09-29T19:15:48;9.70;99.90
34574;DHT22;20809;49.594;8.734;2022-09-29T19:18:48;9.70;99.90
34574;DHT22;20809;49.594;8.734;2022-09-29T19:21:49;9.70;99.90
34574;DHT22;20809;49.594;8.734;2022-09-29T19:24:50;9.70;99.90
34574;DHT22;20809;49.594;8.734;2022-09-29T19:27:53;9.70;99.90
34574;DHT22;20809;49.594;8.734;2022-09-29T19:31:03;9.70;99.90
34574;DHT22;20809;49.594;8.734;2022-09-29T19:34:03;9.70;99.90
34574;DHT22;20809;49.594;8.734;2022-09-29T19:37:05;9.60;99.90
34574;DHT22;20809;49.594;8.734;2022-09-29T19:40:08;9.60;99.90
34574;DHT22;20809;49.594;8.734;2022-09-29T19:43:09;9.60;99.90
34574;DHT22;20809;49.594;8.734;2022-09-29T19:46:12;9.60;99.90
34574;DHT22;20809;49.594;8.734;2022-09-29T19:49:13;9.60;99.90
34574;DHT22;20809;49.594;8.734;2022-09-29T19:52:14;9.60;99.90
34574;DHT22;20809;49.594;8.734;2022-09-29T19:55:15;9.60;99.90
34574;DHT22;20809;49.594;8.734;2022-09-29T19:58:16;9.60;99.90
34574;DHT22;20809;49.594;8.734;2022-09-29T20:01:17;9.60;99.90
34574;DHT22;20809;49.594;8.734;2022-09-29T20:04:22;9.60;99.90
34574;DHT22;20809;49.594;8.734;2022-09-29T20:07:23;9.60;99.90
34574;DHT22;20809;49.594;8.734;2022-09-29T20:10:24;9.50;99.90
34574;DHT22;20809;49.594;8.734;2022-09-29T20:13:27;9.50;99.90
34574;DHT22;20809;49.594;8.734;2022-09-29T20:16:34;9.50;99.90
34574;DHT22;20809;49.594;8.734;2022-09-29T20:19:36;9.50;99.90
34574;DHT22;20809;49.594;8.734;2022-09-29T20:22:37;9.50;99.90
34574;DHT22;20809;49.594;8.734;2022-09-29T20:25:38;9.50;99.90
34574;DHT22;20809;49.594;8.734;2022-09-29T20:28:38;9.50;99.90
34574;DHT22;20809;49.594;8.734;2022-09-29T20:31:39;9.40;99.90
34574;DHT22;20809;49.594;8.734;2022-09-29T20:34:40;9.40;99.90
34574;DHT22;20809;49.594;8.734;2022-09-29T20:37:41;9.40;99.90
34574;DHT22;20809;49.594;8.734;2022-09-29T20:40:42;9.40;99.90
34574;DHT22;20809;49.594;8.734;2022-09-29T20:43:46;9.30;99.90
34574;DHT22;20809;49.594;8.734;2022-09-29T20:46:48;9.30;99.90
34574;DHT22;20809;49.594;8.734;2022-09-29T20:49:50;9.30;99.90
34574;DHT22;20809;49.594;8.734;2022-09-29T20:52:53;9.20;99.90
34574;DHT22;20809;49.594;8.734;2022-09-29T20:56:04;9.20;99.90
34574;DHT22;20809;49.594;8.734;2022-09-29T20:59:06;9.20;99.90
34574;DHT22;20809;49.594;8.734;2022-09-29T21:02:09;9.20;99.90
34574;DHT22;20809;49.594;8.734;2022-09-29T21:05:10;9.20;99.90
34574;DHT22;20809;49.594;8.734;2022-09-29T21:08:10;9.10;99.90
34574;DHT22;20809;49.594;8.734;2022-09-29T21:11:11;9.00;99.90
34574;DHT22;20809;49.594;8.734;2022-09-29T21:14:15;8.90;99.90
34574;DHT22;20809;49.594;8.734;2022-09-29T21:17:17;9.00;99.90
34574;DHT22;20809;49.594;8.734;2022-09-29T21:20:18;9.00;99.90
34574;DHT22;20809;49.594;8.734;2022-09-29T21:23:18;9.00;99.90
34574;DHT22;20809;49.594;8.734;2022-09-29T21:26:21;8.90;99.90
34574;DHT22;20809;49.594;8.734;2022-09-29T21:29:23;8.90;99.90
34574;DHT22;20809;49.594;8.734;2022-09-29T21:32:24;8.90;99.90
34574;DHT22;20809;49.594;8.734;2022-09-29T21:35:25;8.90;99.90
34574;DHT22;20809;49.594;8.734;2022-09-29T21:38:26;8.80;99.90
34574;DHT22;20809;49.594;8.734;2022-09-29T21:41:32;8.80;99.90
34574;DHT22;20809;49.594;8.734;2022-09-29T21:44:32;8.80;99.90
34574;DHT22;20809;49.594;8.734;2022-09-29T21:47:33;8.70;99.90
34574;DHT22;20809;49.594;8.734;2022-09-29T21:51:00;8.70;99.90
34574;DHT22;20809;49.594;8.734;2022-09-29T21:54:02;8.50;99.90
34574;DHT22;20809;49.594;8.734;2022-09-29T21:57:03;8.40;99.90
34574;DHT22;20809;49.594;8.734;2022-09-29T22:00:06;8.40;99.90
34574;DHT22;20809;49.594;8.734;2022-09-29T22:03:07;8.30;99.90
34574;DHT22;20809;49.594;8.734;2022-09-29T22:06:19;8.20;99.90
34574;DHT22;20809;49.594;8.734;2022-09-29T22:09:20;8.20;99.90
34574;DHT22;20809;49.594;8.734;2022-09-29T22:12:21;8.20;99.90
34574;DHT22;20809;49.594;8.734;2022-09-29T22:15:22;8.10;99.90
34574;DHT22;20809;49.594;8.734;2022-09-29T22:18:23;8.10;99.90
34574;DHT22;20809;49.594;8.734;2022-09-29T22:21:25;8.20;99.90
34574;DHT22;20809;49.594;8.734;2022-09-29T22:24:26;8.20;99.90
34574;DHT22;20809;49.594;8.734;2022-09-29T22:27:27;8.30;99.90
34574;DHT22;20809;49.594;8.734;2022-09-29T22:30:28;8.20;99.90